sensor_id;sensor_type;location;lat;lon;timestamp;P1;durP1;ratioP1;P2;durP2;ratioP2
5867;SDS011;2960;49.142;7.768;2023-05-15T00:02:14;10.80;;;4.70;;
5867;SDS011;2960;49.142;7.768;2023-05-15T00:04:41;11.30;;;5.20;;
5867;SDS011;2960;49.142;7.768;2023-05-15T00:07:08;10.80;;;4.73;;
5867;SDS011;2960;49.142;7.768;2023-05-15T00:09:37;10.90;;;5.13;;
5867;SDS011;2960;49.142;7.768;2023-05-15T00:12:05;11.60;;;5.10;;
5867;SDS011;2960;49.142;7.768;2023-05-15T00:14:32;10.47;;;4.60;;
5867;SDS011;2960;49.142;7.768;2023-05-15T00:17:00;11.20;;;4.93;;
5867;SDS011;2960;49.142;7.768;2023-05-15T00:19:27;10.40;;;4.60;;
5867;SDS011;2960;49.142;7.768;2023-05-15T00:21:54;11.80;;;5.37;;
5867;SDS011;2960;49.142;7.768;2023-05-15T00:24:21;10.10;;;4.23;;
5867;SDS011;2960;49.142;7.768;2023-05-15T00:26:50;10.53;;;4.63;;
5867;SDS011;2960;49.142;7.768;2023-05-15T00:29:17;10.40;;;4.70;;
5867;SDS011;2960;49.142;7.768;2023-05-15T00:31:44;11.67;;;5.00;;
5867;SDS011;2960;49.142;7.768;2023-05-15T00:34:11;10.90;;;4.90;;
5867;SDS011;2960;49.142;7.768;2023-05-15T00:36:38;10.13;;;4.50;;
5867;SDS011;2960;49.142;7.768;2023-05-15T00:39:05;10.40;;;4.57;;
5867;SDS011;2960;49.142;7.768;2023-05-15T00:41:32;10.10;;;4.30;;
5867;SDS011;2960;49.142;7.768;2023-05-15T00:44:03;10.80;;;5.00;;
5867;SDS011;2960;49.142;7.768;2023-05-15T00:46:32;10.60;;;4.63;;
5867;SDS011;2960;49.142;7.768;2023-05-15T00:49:02;10.57;;;4.87;;
5867;SDS011;2960;49.142;7.768;2023-05-15T00:51:30;10.50;;;4.80;;
5867;SDS011;2960;49.142;7.768;2023-05-15T00:53:58;10.70;;;4.90;;
5867;SDS011;2960;49.142;7.768;2023-05-15T00:56:25;10.20;;;4.70;;
5867;SDS011;2960;49.142;7.768;2023-05-15T00:58:55;10.60;;;4.43;;
5867;SDS011;2960;49.142;7.768;2023-05-15T01:01:26;10.90;;;4.63;;
5867;SDS011;2960;49.142;7.768;2023-05-15T01:03:57;10.43;;;4.87;;
5867;SDS011;2960;49.142;7.768;2023-05-15T01:06:24;10.80;;;4.63;;
5867;SDS011;2960;49.142;7.768;2023-05-15T01:08:52;10.90;;;4.70;;
5867;SDS011;2960;49.142;7.768;2023-05-15T01:11:23;10.50;;;4.70;;
5867;SDS011;2960;49.142;7.768;2023-05-15T01:14:00;10.30;;;4.60;;
5867;SDS011;2960;49.142;7.768;2023-05-15T01:16:30;10.17;;;4.70;;
5867;SDS011;2960;49.142;7.768;2023-05-15T01:18:58;10.40;;;4.77;;
5867;SDS011;2960;49.142;7.768;2023-05-15T01:21:27;11.43;;;5.07;;
5867;SDS011;2960;49.142;7.768;2023-05-15T01:27:51;10.47;;;4.50;;
5867;SDS011;2960;49.142;7.768;2023-05-15T01:30:23;10.60;;;4.90;;
5867;SDS011;2960;49.142;7.768;2023-05-15T01:32:58;10.90;;;4.70;;
5867;SDS011;2960;49.142;7.768;2023-05-15T01:35:32;10.80;;;4.80;;
5867;SDS011;2960;49.142;7.768;2023-05-15T01:38:08;10.27;;;4.70;;
5867;SDS011;2960;49.142;7.768;2023-05-15T01:40:45;11.27;;;4.67;;
5867;SDS011;2960;49.142;7.768;2023-05-15T01:43:17;10.43;;;4.63;;
5867;SDS011;2960;49.142;7.768;2023-05-15T01:45:47;10.90;;;4.80;;
5867;SDS011;2960;49.142;7.768;2023-05-15T01:48:15;10.37;;;4.83;;
5867;SDS011;2960;49.142;7.768;2023-05-15T01:50:43;10.97;;;4.87;;
5867;SDS011;2960;49.142;7.768;2023-05-15T01:53:12;10.50;;;4.80;;
5867;SDS011;2960;49.142;7.768;2023-05-15T01:55:41;10.43;;;4.70;;
5867;SDS011;2960;49.142;7.768;2023-05-15T01:58:08;10.87;;;4.73;;
5867;SDS011;2960;49.142;7.768;2023-05-15T02:00:37;10.40;;;4.10;;
5867;SDS011;2960;49.142;7.768;2023-05-15T02:03:08;10.90;;;4.30;;
5867;SDS011;2960;49.142;7.768;2023-05-15T02:05:35;10.10;;;4.40;;
5867;SDS011;2960;49.142;7.768;2023-05-15T02:08:03;10.40;;;4.37;;
5867;SDS011;2960;49.142;7.768;2023-05-15T02:10:31;10.03;;;4.50;;
5867;SDS011;2960;49.142;7.768;2023-05-15T02:13:00;10.87;;;4.43;;
5867;SDS011;2960;49.142;7.768;2023-05-15T02:15:27;12.13;;;4.70;;
5867;SDS011;2960;49.142;7.768;2023-05-15T02:17:56;10.77;;;4.67;;
5867;SDS011;2960;49.142;7.768;2023-05-15T02:20:24;11.93;;;5.00;;
5867;SDS011;2960;49.142;7.768;2023-05-15T02:22:51;10.13;;;4.50;;
5867;SDS011;2960;49.142;7.768;2023-05-15T02:25:18;10.00;;;4.10;;
5867;SDS011;2960;49.142;7.768;2023-05-15T02:27:59;10.63;;;4.27;;
5867;SDS011;2960;49.142;7.768;2023-05-15T02:30:34;11.10;;;4.70;;
5867;SDS011;2960;49.142;7.768;2023-05-15T02:33:16;10.37;;;4.57;;
5867;SDS011;2960;49.142;7.768;2023-05-15T02:35:52;10.47;;;4.30;;
5867;SDS011;2960;49.142;7.768;2023-05-15T02:38:24;10.80;;;4.23;;
5867;SDS011;2960;49.142;7.768;2023-05-15T02:40:56;10.53;;;4.17;;
5867;SDS011;2960;49.142;7.768;2023-05-15T02:43:25;10.27;;;4.63;;
5867;SDS011;2960;49.142;7.768;2023-05-15T02:45:56;9.97;;;4.17;;
5867;SDS011;2960;49.142;7.768;2023-05-15T02:48:26;10.50;;;4.33;;
5867;SDS011;2960;49.142;7.768;2023-05-15T02:50:56;10.33;;;4.60;;
5867;SDS011;2960;49.142;7.768;2023-05-15T02:53:24;10.67;;;4.37;;
5867;SDS011;2960;49.142;7.768;2023-05-15T02:55:52;10.37;;;4.37;;
5867;SDS011;2960;49.142;7.768;2023-05-15T02:58:19;10.57;;;4.50;;
5867;SDS011;2960;49.142;7.768;2023-05-15T03:00:46;10.20;;;4.23;;
5867;SDS011;2960;49.142;7.768;2023-05-15T03:03:13;11.03;;;4.13;;
5867;SDS011;2960;49.142;7.768;2023-05-15T03:05:42;10.23;;;4.47;;
5867;SDS011;2960;49.142;7.768;2023-05-15T03:08:09;10.43;;;4.37;;
5867;SDS011;2960;49.142;7.768;2023-05-15T03:10:36;10.30;;;4.53;;
5867;SDS011;2960;49.142;7.768;2023-05-15T03:13:03;11.20;;;4.40;;
5867;SDS011;2960;49.142;7.768;2023-05-15T03:15:31;11.23;;;4.60;;
5867;SDS011;2960;49.142;7.768;2023-05-15T03:17:58;10.67;;;4.17;;
5867;SDS011;2960;49.142;7.768;2023-05-15T03:20:25;9.77;;;3.93;;
5867;SDS011;2960;49.142;7.768;2023-05-15T03:22:53;10.20;;;4.30;;
5867;SDS011;2960;49.142;7.768;2023-05-15T03:25:21;10.30;;;4.47;;
5867;SDS011;2960;49.142;7.768;2023-05-15T03:27:48;10.30;;;4.33;;
5867;SDS011;2960;49.142;7.768;2023-05-15T03:30:15;10.10;;;4.43;;
5867;SDS011;2960;49.142;7.768;2023-05-15T03:32:42;10.57;;;4.50;;
5867;SDS011;2960;49.142;7.768;2023-05-15T03:35:09;9.67;;;4.10;;
5867;SDS011;2960;49.142;7.768;2023-05-15T03:37:36;11.87;;;4.60;;
5867;SDS011;2960;49.142;7.768;2023-05-15T03:40:06;10.97;;;4.40;;
5867;SDS011;2960;49.142;7.768;2023-05-15T03:42:34;10.00;;;4.43;;
5867;SDS011;2960;49.142;7.768;2023-05-15T03:45:01;10.13;;;4.00;;
5867;SDS011;2960;49.142;7.768;2023-05-15T03:47:29;9.70;;;3.87;;
5867;SDS011;2960;49.142;7.768;2023-05-15T03:49:56;10.17;;;4.10;;
5867;SDS011;2960;49.142;7.768;2023-05-15T03:52:23;10.47;;;4.43;;
5867;SDS011;2960;49.142;7.768;2023-05-15T03:54:51;10.73;;;4.27;;
5867;SDS011;2960;49.142;7.768;2023-05-15T03:57:19;10.00;;;4.00;;
5867;SDS011;2960;49.142;7.768;2023-05-15T03:59:46;9.77;;;4.03;;
5867;SDS011;2960;49.142;7.768;2023-05-15T04:02:13;10.20;;;4.03;;
5867;SDS011;2960;49.142;7.768;2023-05-15T04:04:40;10.37;;;4.00;;
5867;SDS011;2960;49.142;7.768;2023-05-15T04:07:08;9.93;;;4.03;;
5867;SDS011;2960;49.142;7.768;2023-05-15T04:09:35;10.00;;;3.80;;
5867;SDS011;2960;49.142;7.768;2023-05-15T04:12:03;10.33;;;3.97;;
5867;SDS011;2960;49.142;7.768;2023-05-15T04:14:32;11.27;;;4.20;;
5867;SDS011;2960;49.142;7.768;2023-05-15T04:16:59;9.60;;;3.90;;
5867;SDS011;2960;49.142;7.768;2023-05-15T04:19:27;9.97;;;4.00;;
5867;SDS011;2960;49.142;7.768;2023-05-15T04:21:54;10.30;;;4.17;;
5867;SDS011;2960;49.142;7.768;2023-05-15T04:24:21;10.27;;;4.33;;
5867;SDS011;2960;49.142;7.768;2023-05-15T04:26:51;9.70;;;4.00;;
5867;SDS011;2960;49.142;7.768;2023-05-15T04:29:18;9.87;;;3.80;;
5867;SDS011;2960;49.142;7.768;2023-05-15T04:31:46;11.50;;;4.23;;
5867;SDS011;2960;49.142;7.768;2023-05-15T04:34:13;9.80;;;3.90;;
5867;SDS011;2960;49.142;7.768;2023-05-15T04:36:41;9.73;;;3.97;;
5867;SDS011;2960;49.142;7.768;2023-05-15T04:39:09;10.30;;;4.33;;
5867;SDS011;2960;49.142;7.768;2023-05-15T04:41:36;10.13;;;4.30;;
5867;SDS011;2960;49.142;7.768;2023-05-15T04:44:03;10.00;;;4.10;;
5867;SDS011;2960;49.142;7.768;2023-05-15T04:46:31;9.70;;;4.00;;
5867;SDS011;2960;49.142;7.768;2023-05-15T04:49:02;10.40;;;4.63;;
5867;SDS011;2960;49.142;7.768;2023-05-15T04:51:31;9.93;;;4.23;;
5867;SDS011;2960;49.142;7.768;2023-05-15T04:53:58;9.80;;;3.93;;
5867;SDS011;2960;49.142;7.768;2023-05-15T04:56:25;10.20;;;4.50;;
5867;SDS011;2960;49.142;7.768;2023-05-15T04:58:52;9.90;;;4.17;;
5867;SDS011;2960;49.142;7.768;2023-05-15T05:01:19;10.03;;;4.10;;
5867;SDS011;2960;49.142;7.768;2023-05-15T05:03:46;9.93;;;4.17;;
5867;SDS011;2960;49.142;7.768;2023-05-15T05:06:15;9.87;;;4.20;;
5867;SDS011;2960;49.142;7.768;2023-05-15T05:08:42;10.00;;;4.17;;
5867;SDS011;2960;49.142;7.768;2023-05-15T05:11:09;10.13;;;4.40;;
5867;SDS011;2960;49.142;7.768;2023-05-15T05:13:36;10.13;;;4.40;;
5867;SDS011;2960;49.142;7.768;2023-05-15T05:16:03;13.47;;;4.30;;
5867;SDS011;2960;49.142;7.768;2023-05-15T05:18:31;9.67;;;3.80;;
5867;SDS011;2960;49.142;7.768;2023-05-15T05:20:58;10.40;;;4.10;;
5867;SDS011;2960;49.142;7.768;2023-05-15T05:23:27;11.70;;;4.37;;
5867;SDS011;2960;49.142;7.768;2023-05-15T05:25:55;9.80;;;4.07;;
5867;SDS011;2960;49.142;7.768;2023-05-15T05:28:22;9.90;;;4.20;;
5867;SDS011;2960;49.142;7.768;2023-05-15T05:30:49;10.20;;;4.47;;
5867;SDS011;2960;49.142;7.768;2023-05-15T05:33:17;9.73;;;3.77;;
5867;SDS011;2960;49.142;7.768;2023-05-15T05:35:44;10.30;;;4.10;;
5867;SDS011;2960;49.142;7.768;2023-05-15T05:38:11;10.07;;;4.10;;
5867;SDS011;2960;49.142;7.768;2023-05-15T05:40:39;11.60;;;4.10;;
5867;SDS011;2960;49.142;7.768;2023-05-15T05:43:06;10.03;;;4.17;;
5867;SDS011;2960;49.142;7.768;2023-05-15T05:45:33;10.23;;;3.90;;
5867;SDS011;2960;49.142;7.768;2023-05-15T05:48:01;10.23;;;4.30;;
5867;SDS011;2960;49.142;7.768;2023-05-15T05:50:28;10.20;;;4.30;;
5867;SDS011;2960;49.142;7.768;2023-05-15T05:52:55;10.43;;;4.37;;
5867;SDS011;2960;49.142;7.768;2023-05-15T05:55:22;10.60;;;4.60;;
5867;SDS011;2960;49.142;7.768;2023-05-15T05:57:50;10.60;;;4.70;;
5867;SDS011;2960;49.142;7.768;2023-05-15T06:00:18;10.47;;;4.70;;
5867;SDS011;2960;49.142;7.768;2023-05-15T06:02:46;10.50;;;4.50;;
5867;SDS011;2960;49.142;7.768;2023-05-15T06:05:13;11.00;;;4.17;;
5867;SDS011;2960;49.142;7.768;2023-05-15T06:07:41;9.90;;;4.10;;
5867;SDS011;2960;49.142;7.768;2023-05-15T06:10:08;10.30;;;4.53;;
5867;SDS011;2960;49.142;7.768;2023-05-15T06:12:37;10.90;;;4.53;;
5867;SDS011;2960;49.142;7.768;2023-05-15T06:15:06;10.20;;;4.23;;
5867;SDS011;2960;49.142;7.768;2023-05-15T06:17:34;10.27;;;4.17;;
5867;SDS011;2960;49.142;7.768;2023-05-15T06:20:01;10.40;;;4.23;;
5867;SDS011;2960;49.142;7.768;2023-05-15T06:22:31;10.40;;;4.00;;
5867;SDS011;2960;49.142;7.768;2023-05-15T06:24:58;10.13;;;4.00;;
5867;SDS011;2960;49.142;7.768;2023-05-15T06:27:26;10.63;;;4.50;;
5867;SDS011;2960;49.142;7.768;2023-05-15T06:29:54;10.50;;;4.40;;
5867;SDS011;2960;49.142;7.768;2023-05-15T06:32:22;10.33;;;4.33;;
5867;SDS011;2960;49.142;7.768;2023-05-15T06:34:49;10.50;;;4.10;;
5867;SDS011;2960;49.142;7.768;2023-05-15T06:37:16;10.57;;;4.60;;
5867;SDS011;2960;49.142;7.768;2023-05-15T06:39:43;12.40;;;4.70;;
5867;SDS011;2960;49.142;7.768;2023-05-15T06:42:10;10.57;;;4.57;;
5867;SDS011;2960;49.142;7.768;2023-05-15T06:44:39;10.33;;;4.33;;
5867;SDS011;2960;49.142;7.768;2023-05-15T06:47:06;11.03;;;4.63;;
5867;SDS011;2960;49.142;7.768;2023-05-15T06:49:34;10.17;;;4.30;;
5867;SDS011;2960;49.142;7.768;2023-05-15T06:52:01;10.47;;;4.70;;
5867;SDS011;2960;49.142;7.768;2023-05-15T06:54:29;10.40;;;4.40;;
5867;SDS011;2960;49.142;7.768;2023-05-15T06:56:56;11.27;;;4.70;;
5867;SDS011;2960;49.142;7.768;2023-05-15T06:59:23;11.27;;;4.90;;
5867;SDS011;2960;49.142;7.768;2023-05-15T07:01:50;10.63;;;4.43;;
5867;SDS011;2960;49.142;7.768;2023-05-15T07:04:17;11.87;;;5.20;;
5867;SDS011;2960;49.142;7.768;2023-05-15T07:06:46;11.20;;;4.83;;
5867;SDS011;2960;49.142;7.768;2023-05-15T07:09:14;10.70;;;4.50;;
5867;SDS011;2960;49.142;7.768;2023-05-15T07:11:41;10.93;;;4.80;;
5867;SDS011;2960;49.142;7.768;2023-05-15T07:14:08;10.60;;;4.43;;
5867;SDS011;2960;49.142;7.768;2023-05-15T07:16:36;10.50;;;4.20;;
5867;SDS011;2960;49.142;7.768;2023-05-15T07:19:03;10.70;;;4.40;;
5867;SDS011;2960;49.142;7.768;2023-05-15T07:21:30;10.90;;;4.50;;
5867;SDS011;2960;49.142;7.768;2023-05-15T07:23:58;10.70;;;4.40;;
5867;SDS011;2960;49.142;7.768;2023-05-15T07:26:25;10.70;;;4.10;;
5867;SDS011;2960;49.142;7.768;2023-05-15T07:28:52;10.90;;;4.60;;
5867;SDS011;2960;49.142;7.768;2023-05-15T07:31:19;11.13;;;4.80;;
5867;SDS011;2960;49.142;7.768;2023-05-15T07:33:47;10.90;;;4.40;;
5867;SDS011;2960;49.142;7.768;2023-05-15T07:36:14;10.97;;;4.70;;
5867;SDS011;2960;49.142;7.768;2023-05-15T07:38:41;10.70;;;4.60;;
5867;SDS011;2960;49.142;7.768;2023-05-15T07:41:10;11.10;;;5.10;;
5867;SDS011;2960;49.142;7.768;2023-05-15T07:43:37;10.80;;;4.57;;
5867;SDS011;2960;49.142;7.768;2023-05-15T07:46:04;10.80;;;4.67;;
5867;SDS011;2960;49.142;7.768;2023-05-15T07:48:31;10.60;;;4.80;;
5867;SDS011;2960;49.142;7.768;2023-05-15T07:50:58;11.40;;;4.70;;
5867;SDS011;2960;49.142;7.768;2023-05-15T07:53:25;11.07;;;5.00;;
5867;SDS011;2960;49.142;7.768;2023-05-15T07:55:52;11.00;;;4.73;;
5867;SDS011;2960;49.142;7.768;2023-05-15T07:58:21;10.93;;;4.77;;
5867;SDS011;2960;49.142;7.768;2023-05-15T08:00:48;10.70;;;4.50;;
5867;SDS011;2960;49.142;7.768;2023-05-15T08:03:15;11.10;;;4.93;;
5867;SDS011;2960;49.142;7.768;2023-05-15T08:05:42;11.07;;;4.63;;
5867;SDS011;2960;49.142;7.768;2023-05-15T08:08:09;10.90;;;4.70;;
5867;SDS011;2960;49.142;7.768;2023-05-15T08:10:36;10.80;;;4.60;;
5867;SDS011;2960;49.142;7.768;2023-05-15T08:13:03;10.60;;;4.63;;
5867;SDS011;2960;49.142;7.768;2023-05-15T08:15:32;11.97;;;4.67;;
5867;SDS011;2960;49.142;7.768;2023-05-15T08:17:59;11.30;;;4.50;;
5867;SDS011;2960;49.142;7.768;2023-05-15T08:20:26;10.60;;;4.37;;
5867;SDS011;2960;49.142;7.768;2023-05-15T08:22:53;10.80;;;4.73;;
5867;SDS011;2960;49.142;7.768;2023-05-15T08:25:20;11.30;;;5.03;;
5867;SDS011;2960;49.142;7.768;2023-05-15T08:27:48;11.00;;;4.90;;
5867;SDS011;2960;49.142;7.768;2023-05-15T08:30:15;11.13;;;5.10;;
5867;SDS011;2960;49.142;7.768;2023-05-15T08:32:44;11.37;;;4.93;;
5867;SDS011;2960;49.142;7.768;2023-05-15T08:35:12;11.53;;;4.97;;
5867;SDS011;2960;49.142;7.768;2023-05-15T08:37:40;11.30;;;5.10;;
5867;SDS011;2960;49.142;7.768;2023-05-15T08:40:07;11.50;;;5.00;;
5867;SDS011;2960;49.142;7.768;2023-05-15T08:42:36;11.13;;;5.00;;
5867;SDS011;2960;49.142;7.768;2023-05-15T08:45:11;11.80;;;5.07;;
5867;SDS011;2960;49.142;7.768;2023-05-15T08:47:39;11.50;;;5.13;;
5867;SDS011;2960;49.142;7.768;2023-05-15T08:50:10;11.90;;;5.60;;
5867;SDS011;2960;49.142;7.768;2023-05-15T08:52:39;11.40;;;5.30;;
5867;SDS011;2960;49.142;7.768;2023-05-15T08:55:08;12.00;;;5.03;;
5867;SDS011;2960;49.142;7.768;2023-05-15T08:57:36;11.27;;;4.90;;
5867;SDS011;2960;49.142;7.768;2023-05-15T09:00:04;11.13;;;4.80;;
5867;SDS011;2960;49.142;7.768;2023-05-15T09:02:33;10.97;;;4.70;;
5867;SDS011;2960;49.142;7.768;2023-05-15T09:05:01;11.63;;;5.20;;
5867;SDS011;2960;49.142;7.768;2023-05-15T09:07:30;11.17;;;5.20;;
5867;SDS011;2960;49.142;7.768;2023-05-15T09:09:58;11.67;;;5.23;;
5867;SDS011;2960;49.142;7.768;2023-05-15T09:12:27;11.70;;;5.40;;
5867;SDS011;2960;49.142;7.768;2023-05-15T09:15:08;12.63;;;5.20;;
5867;SDS011;2960;49.142;7.768;2023-05-15T09:17:36;11.23;;;4.53;;
5867;SDS011;2960;49.142;7.768;2023-05-15T09:20:04;11.67;;;5.07;;
5867;SDS011;2960;49.142;7.768;2023-05-15T09:22:34;11.00;;;4.70;;
5867;SDS011;2960;49.142;7.768;2023-05-15T09:25:01;11.20;;;4.87;;
5867;SDS011;2960;49.142;7.768;2023-05-15T09:27:29;11.37;;;5.00;;
5867;SDS011;2960;49.142;7.768;2023-05-15T09:30:09;11.87;;;5.53;;
5867;SDS011;2960;49.142;7.768;2023-05-15T09:32:37;11.47;;;5.10;;
5867;SDS011;2960;49.142;7.768;2023-05-15T09:35:05;10.60;;;4.60;;
5867;SDS011;2960;49.142;7.768;2023-05-15T09:37:59;11.67;;;5.40;;
5867;SDS011;2960;49.142;7.768;2023-05-15T09:40:28;10.70;;;4.40;;
5867;SDS011;2960;49.142;7.768;2023-05-15T09:42:56;11.17;;;5.17;;
5867;SDS011;2960;49.142;7.768;2023-05-15T09:45:24;11.07;;;4.70;;
5867;SDS011;2960;49.142;7.768;2023-05-15T09:47:54;12.73;;;5.30;;
5867;SDS011;2960;49.142;7.768;2023-05-15T09:50:23;12.13;;;5.30;;
5867;SDS011;2960;49.142;7.768;2023-05-15T09:52:59;10.97;;;4.93;;
5867;SDS011;2960;49.142;7.768;2023-05-15T09:55:27;11.00;;;4.70;;
5867;SDS011;2960;49.142;7.768;2023-05-15T09:58:04;11.43;;;5.07;;
5867;SDS011;2960;49.142;7.768;2023-05-15T10:00:35;11.13;;;4.50;;
5867;SDS011;2960;49.142;7.768;2023-05-15T10:03:04;10.93;;;4.63;;
5867;SDS011;2960;49.142;7.768;2023-05-15T10:05:32;10.80;;;4.43;;
5867;SDS011;2960;49.142;7.768;2023-05-15T10:08:01;10.93;;;4.80;;
5867;SDS011;2960;49.142;7.768;2023-05-15T10:10:29;11.40;;;4.90;;
5867;SDS011;2960;49.142;7.768;2023-05-15T10:12:57;10.90;;;4.50;;
5867;SDS011;2960;49.142;7.768;2023-05-15T10:15:28;11.10;;;5.20;;
5867;SDS011;2960;49.142;7.768;2023-05-15T10:17:56;11.10;;;5.20;;
5867;SDS011;2960;49.142;7.768;2023-05-15T10:20:25;11.17;;;5.30;;
5867;SDS011;2960;49.142;7.768;2023-05-15T10:22:53;11.60;;;5.50;;
5867;SDS011;2960;49.142;7.768;2023-05-15T10:25:27;11.23;;;5.17;;
5867;SDS011;2960;49.142;7.768;2023-05-15T10:28:05;12.70;;;5.93;;
5867;SDS011;2960;49.142;7.768;2023-05-15T10:30:35;11.20;;;5.17;;
5867;SDS011;2960;49.142;7.768;2023-05-15T10:33:03;11.30;;;4.90;;
5867;SDS011;2960;49.142;7.768;2023-05-15T10:35:32;10.80;;;4.77;;
5867;SDS011;2960;49.142;7.768;2023-05-15T10:38:00;10.90;;;4.50;;
5867;SDS011;2960;49.142;7.768;2023-05-15T10:40:32;10.60;;;4.40;;
5867;SDS011;2960;49.142;7.768;2023-05-15T10:43:03;11.40;;;5.20;;
5867;SDS011;2960;49.142;7.768;2023-05-15T10:45:30;11.13;;;4.90;;
5867;SDS011;2960;49.142;7.768;2023-05-15T10:48:00;11.00;;;5.00;;
5867;SDS011;2960;49.142;7.768;2023-05-15T10:50:28;11.50;;;5.30;;
5867;SDS011;2960;49.142;7.768;2023-05-15T10:52:56;12.03;;;5.43;;
5867;SDS011;2960;49.142;7.768;2023-05-15T10:55:23;11.70;;;5.60;;
5867;SDS011;2960;49.142;7.768;2023-05-15T10:57:51;11.60;;;5.80;;
5867;SDS011;2960;49.142;7.768;2023-05-15T11:00:25;11.40;;;4.53;;
5867;SDS011;2960;49.142;7.768;2023-05-15T11:02:55;11.67;;;5.10;;
5867;SDS011;2960;49.142;7.768;2023-05-15T11:05:23;12.13;;;5.87;;
5867;SDS011;2960;49.142;7.768;2023-05-15T11:10:51;12.53;;;5.77;;
5867;SDS011;2960;49.142;7.768;2023-05-15T11:13:20;12.50;;;5.57;;
5867;SDS011;2960;49.142;7.768;2023-05-15T11:15:47;12.10;;;5.33;;
5867;SDS011;2960;49.142;7.768;2023-05-15T11:18:14;12.37;;;6.13;;
5867;SDS011;2960;49.142;7.768;2023-05-15T11:21:04;13.10;;;6.20;;
5867;SDS011;2960;49.142;7.768;2023-05-15T11:23:38;11.93;;;6.10;;
5867;SDS011;2960;49.142;7.768;2023-05-15T11:26:06;13.30;;;5.53;;
5867;SDS011;2960;49.142;7.768;2023-05-15T11:28:41;11.83;;;5.70;;
5867;SDS011;2960;49.142;7.768;2023-05-15T11:31:08;11.83;;;6.03;;
5867;SDS011;2960;49.142;7.768;2023-05-15T11:33:37;12.17;;;6.37;;
5867;SDS011;2960;49.142;7.768;2023-05-15T11:36:05;12.40;;;6.20;;
5867;SDS011;2960;49.142;7.768;2023-05-15T11:38:37;12.73;;;6.03;;
5867;SDS011;2960;49.142;7.768;2023-05-15T11:41:15;11.70;;;5.87;;
5867;SDS011;2960;49.142;7.768;2023-05-15T11:43:47;12.33;;;5.10;;
5867;SDS011;2960;49.142;7.768;2023-05-15T11:46:14;12.33;;;6.10;;
5867;SDS011;2960;49.142;7.768;2023-05-15T11:48:42;11.97;;;6.40;;
5867;SDS011;2960;49.142;7.768;2023-05-15T11:51:14;11.77;;;6.03;;
5867;SDS011;2960;49.142;7.768;2023-05-15T11:53:48;13.63;;;6.53;;
5867;SDS011;2960;49.142;7.768;2023-05-15T11:56:17;12.50;;;6.27;;
5867;SDS011;2960;49.142;7.768;2023-05-15T11:58:47;13.00;;;6.10;;
5867;SDS011;2960;49.142;7.768;2023-05-15T12:01:15;12.80;;;6.00;;
5867;SDS011;2960;49.142;7.768;2023-05-15T12:03:43;12.40;;;6.07;;
5867;SDS011;2960;49.142;7.768;2023-05-15T12:06:13;13.97;;;6.20;;
5867;SDS011;2960;49.142;7.768;2023-05-15T12:08:41;12.67;;;6.03;;
5867;SDS011;2960;49.142;7.768;2023-05-15T12:11:08;16.83;;;5.87;;
5867;SDS011;2960;49.142;7.768;2023-05-15T12:13:36;12.50;;;6.37;;
5867;SDS011;2960;49.142;7.768;2023-05-15T12:16:04;13.70;;;5.80;;
5867;SDS011;2960;49.142;7.768;2023-05-15T12:18:32;12.47;;;5.70;;
5867;SDS011;2960;49.142;7.768;2023-05-15T12:20:59;11.67;;;5.50;;
5867;SDS011;2960;49.142;7.768;2023-05-15T12:23:28;12.40;;;5.60;;
5867;SDS011;2960;49.142;7.768;2023-05-15T12:25:58;11.40;;;5.20;;
5867;SDS011;2960;49.142;7.768;2023-05-15T12:28:27;12.10;;;5.70;;
5867;SDS011;2960;49.142;7.768;2023-05-15T12:30:55;11.90;;;5.60;;
5867;SDS011;2960;49.142;7.768;2023-05-15T12:33:24;11.30;;;5.20;;
5867;SDS011;2960;49.142;7.768;2023-05-15T12:35:53;12.00;;;5.70;;
5867;SDS011;2960;49.142;7.768;2023-05-15T12:38:22;11.50;;;4.93;;
5867;SDS011;2960;49.142;7.768;2023-05-15T12:40:50;11.57;;;4.93;;
5867;SDS011;2960;49.142;7.768;2023-05-15T12:43:18;11.57;;;5.30;;
5867;SDS011;2960;49.142;7.768;2023-05-15T12:45:50;11.37;;;4.97;;
5867;SDS011;2960;49.142;7.768;2023-05-15T12:48:18;11.30;;;5.27;;
5867;SDS011;2960;49.142;7.768;2023-05-15T12:50:47;11.83;;;5.20;;
5867;SDS011;2960;49.142;7.768;2023-05-15T12:53:15;11.67;;;5.40;;
5867;SDS011;2960;49.142;7.768;2023-05-15T12:55:43;11.03;;;5.00;;
5867;SDS011;2960;49.142;7.768;2023-05-15T12:58:13;13.00;;;4.93;;
5867;SDS011;2960;49.142;7.768;2023-05-15T13:00:42;11.10;;;4.60;;
5867;SDS011;2960;49.142;7.768;2023-05-15T13:03:11;11.10;;;4.77;;
5867;SDS011;2960;49.142;7.768;2023-05-15T13:05:40;11.77;;;5.77;;
5867;SDS011;2960;49.142;7.768;2023-05-15T13:08:13;11.40;;;5.60;;
5867;SDS011;2960;49.142;7.768;2023-05-15T13:10:41;11.13;;;5.10;;
5867;SDS011;2960;49.142;7.768;2023-05-15T13:13:09;11.40;;;5.10;;
5867;SDS011;2960;49.142;7.768;2023-05-15T13:15:36;11.50;;;4.83;;
5867;SDS011;2960;49.142;7.768;2023-05-15T13:18:05;11.30;;;5.20;;
5867;SDS011;2960;49.142;7.768;2023-05-15T13:20:35;11.43;;;5.30;;
5867;SDS011;2960;49.142;7.768;2023-05-15T13:23:04;12.30;;;5.40;;
5867;SDS011;2960;49.142;7.768;2023-05-15T13:25:33;14.33;;;5.80;;
5867;SDS011;2960;49.142;7.768;2023-05-15T13:28:01;11.30;;;5.30;;
5867;SDS011;2960;49.142;7.768;2023-05-15T13:30:30;13.83;;;5.40;;
5867;SDS011;2960;49.142;7.768;2023-05-15T13:32:59;11.60;;;5.57;;
5867;SDS011;2960;49.142;7.768;2023-05-15T13:35:26;11.57;;;5.47;;
5867;SDS011;2960;49.142;7.768;2023-05-15T13:37:54;11.70;;;5.30;;
5867;SDS011;2960;49.142;7.768;2023-05-15T13:40:21;11.03;;;4.90;;
5867;SDS011;2960;49.142;7.768;2023-05-15T13:42:50;11.70;;;5.03;;
5867;SDS011;2960;49.142;7.768;2023-05-15T13:45:17;11.27;;;5.17;;
5867;SDS011;2960;49.142;7.768;2023-05-15T13:47:44;11.70;;;5.67;;
5867;SDS011;2960;49.142;7.768;2023-05-15T13:50:12;12.83;;;6.33;;
5867;SDS011;2960;49.142;7.768;2023-05-15T13:52:41;12.30;;;6.10;;
5867;SDS011;2960;49.142;7.768;2023-05-15T13:55:10;12.27;;;5.40;;
5867;SDS011;2960;49.142;7.768;2023-05-15T13:57:38;12.57;;;5.33;;
5867;SDS011;2960;49.142;7.768;2023-05-15T14:00:08;12.10;;;5.50;;
5867;SDS011;2960;49.142;7.768;2023-05-15T14:02:38;11.70;;;5.67;;
5867;SDS011;2960;49.142;7.768;2023-05-15T14:05:07;11.27;;;5.20;;
5867;SDS011;2960;49.142;7.768;2023-05-15T14:07:35;12.00;;;5.43;;
5867;SDS011;2960;49.142;7.768;2023-05-15T14:10:02;11.73;;;4.87;;
5867;SDS011;2960;49.142;7.768;2023-05-15T14:12:30;11.77;;;4.90;;
5867;SDS011;2960;49.142;7.768;2023-05-15T14:14:58;11.77;;;5.27;;
5867;SDS011;2960;49.142;7.768;2023-05-15T14:17:27;11.47;;;5.10;;
5867;SDS011;2960;49.142;7.768;2023-05-15T14:19:54;11.30;;;5.00;;
5867;SDS011;2960;49.142;7.768;2023-05-15T14:22:24;11.37;;;4.80;;
5867;SDS011;2960;49.142;7.768;2023-05-15T14:24:51;11.30;;;5.30;;
5867;SDS011;2960;49.142;7.768;2023-05-15T14:27:19;11.50;;;5.00;;
5867;SDS011;2960;49.142;7.768;2023-05-15T14:29:46;11.50;;;4.87;;
5867;SDS011;2960;49.142;7.768;2023-05-15T14:32:13;11.10;;;4.70;;
5867;SDS011;2960;49.142;7.768;2023-05-15T14:34:42;11.20;;;4.73;;
5867;SDS011;2960;49.142;7.768;2023-05-15T14:37:09;12.33;;;4.90;;
5867;SDS011;2960;49.142;7.768;2023-05-15T14:39:36;11.40;;;4.87;;
5867;SDS011;2960;49.142;7.768;2023-05-15T14:42:03;10.80;;;4.50;;
5867;SDS011;2960;49.142;7.768;2023-05-15T14:44:31;11.40;;;4.70;;
5867;SDS011;2960;49.142;7.768;2023-05-15T14:47:05;11.00;;;4.87;;
5867;SDS011;2960;49.142;7.768;2023-05-15T14:49:34;11.57;;;5.17;;
5867;SDS011;2960;49.142;7.768;2023-05-15T14:52:04;11.57;;;5.30;;
5867;SDS011;2960;49.142;7.768;2023-05-15T14:54:33;12.10;;;4.90;;
5867;SDS011;2960;49.142;7.768;2023-05-15T14:57:00;11.50;;;5.60;;
5867;SDS011;2960;49.142;7.768;2023-05-15T14:59:28;13.63;;;5.77;;
5867;SDS011;2960;49.142;7.768;2023-05-15T15:01:55;11.87;;;5.43;;
5867;SDS011;2960;49.142;7.768;2023-05-15T15:04:23;12.23;;;5.63;;
5867;SDS011;2960;49.142;7.768;2023-05-15T15:06:50;13.17;;;5.93;;
5867;SDS011;2960;49.142;7.768;2023-05-15T15:09:22;12.77;;;5.53;;
5867;SDS011;2960;49.142;7.768;2023-05-15T15:11:49;12.27;;;5.40;;
5867;SDS011;2960;49.142;7.768;2023-05-15T15:14:16;14.93;;;5.90;;
5867;SDS011;2960;49.142;7.768;2023-05-15T15:16:44;12.43;;;5.70;;
5867;SDS011;2960;49.142;7.768;2023-05-15T15:19:11;13.03;;;5.70;;